PWSweather.com
Personal Weather Stations
Station Observations
MADWEATHER
MadeiraPT

MadeiraPT

Lat: 32.735, Lon: -17.194

Elevation: 1063

Station Type: Davis VantagePro2

www.mad-weather.com

High Low Average
Temperature 70.2°F21.2°F 57.9°F14.4°F 62.6°F17.0°F
Dew Point 57.9°F14.4°F 47.1°F8.4°F 51.4°F10.8°F
Winds 16.3 mph NE26.2 mph NE Calm Calm 8.6 mph 13.8 mph
Wind Gusts 26.0 mph41.8 mph -- 13.0 mph20.9 mph
Humidity 79% 49% 67%
Pressure 30.20 in1022.70 in 30.07 in1018.30 in -
Precipitation 0.00 in0.00 in - -
Hour Temp Dew Point Humidity Winds Wind Gusts Pressure Precip Precip Rate Daily Precip Total
12:00 AM 59.3°F15.2°C 52.1°F11.2°C 77% 8.4 mph NE13.5 kmh NE 10.0 mph16.1 kmh 30.11 in1019.6 mb - 0.00 in0.0 mm 0.01 in0.3 mm
12:10 AM 59.4°F15.2°C 52.2°F11.2°C 77% 11.1 mph ENE17.9 kmh ENE 14.0 mph22.5 kmh 30.11 in1019.6 mb - 0.00 in0.0 mm 0.01 in0.3 mm
12:20 AM 59.4°F15.2°C 52.2°F11.2°C 77% 9.0 mph NE14.5 kmh NE 13.0 mph20.9 kmh 30.11 in1019.6 mb - 0.00 in0.0 mm 0.01 in0.3 mm
12:30 AM 59.2°F15.1°C 52.3°F11.3°C 78% 10.0 mph NE16.1 kmh NE 17.0 mph27.4 kmh 30.11 in1019.6 mb - 0.00 in0.0 mm 0.01 in0.3 mm
12:40 AM 59.1°F15.1°C 52.2°F11.2°C 78% 9.2 mph NE14.8 kmh NE 19.0 mph30.6 kmh 30.11 in1019.6 mb - 0.00 in0.0 mm 0.01 in0.3 mm
12:50 AM 59.1°F15.1°C 52.2°F11.2°C 78% 4.9 mph NNE7.9 kmh NNE 7.0 mph11.3 kmh 30.12 in1020.0 mb - 0.00 in0.0 mm 0.01 in0.3 mm
01:00 AM 58.9°F14.9°C 52.4°F11.3°C 79% 9.0 mph ENE14.5 kmh ENE 10.0 mph16.1 kmh 30.12 in1020.0 mb - 0.00 in0.0 mm 0.01 in0.3 mm
01:10 AM 58.8°F14.9°C 52.3°F11.3°C 79% 6.4 mph ENE10.3 kmh ENE 9.0 mph14.5 kmh 30.12 in1020.0 mb - 0.00 in0.0 mm 0.01 in0.3 mm
01:20 AM 58.7°F14.8°C 51.6°F10.9°C 77% 4.9 mph NE7.9 kmh NE 12.0 mph19.3 kmh 30.12 in1020.0 mb - 0.00 in0.0 mm 0.01 in0.3 mm
01:30 AM 58.7°F14.8°C 51.9°F11.1°C 78% Calm Calm 4.0 mph6.4 kmh 30.12 in1020.0 mb - 0.00 in0.0 mm 0.01 in0.3 mm
01:40 AM 58.7°F14.8°C 52.2°F11.2°C 79% 0.4 mph N0.6 kmh N -- 30.12 in1020.0 mb - 0.00 in0.0 mm 0.01 in0.3 mm
01:50 AM 58.5°F14.7°C 52.0°F11.1°C 79% 2.1 mph N3.4 kmh N 4.0 mph6.4 kmh 30.12 in1020.0 mb - 0.00 in0.0 mm 0.01 in0.3 mm
02:00 AM 58.7°F14.8°C 51.8°F11.0°C 78% Calm Calm 3.0 mph4.8 kmh 30.11 in1019.6 mb - 0.00 in0.0 mm 0.01 in0.3 mm
02:10 AM 58.9°F14.9°C 51.7°F10.9°C 77% 3.2 mph NNE5.1 kmh NNE 5.0 mph8.0 kmh 30.11 in1019.6 mb - 0.00 in0.0 mm 0.01 in0.3 mm
02:20 AM 58.9°F14.9°C 51.7°F10.9°C 77% 6.2 mph NE10.0 kmh NE 10.0 mph16.1 kmh 30.11 in1019.6 mb - 0.00 in0.0 mm 0.01 in0.3 mm
02:30 AM 58.8°F14.9°C 51.9°F11.1°C 78% 1.0 mph NE1.6 kmh NE 4.0 mph6.4 kmh 30.11 in1019.6 mb - 0.00 in0.0 mm 0.01 in0.3 mm
02:40 AM 58.7°F14.8°C 51.5°F10.8°C 77% 3.5 mph NE5.6 kmh NE 5.0 mph8.0 kmh 30.11 in1019.6 mb - 0.00 in0.0 mm 0.01 in0.3 mm
02:50 AM 58.6°F14.8°C 51.4°F10.8°C 77% 1.5 mph NE2.4 kmh NE 5.0 mph8.0 kmh 30.11 in1019.6 mb - 0.00 in0.0 mm 0.01 in0.3 mm
03:00 AM 58.3°F14.6°C 51.8°F11.0°C 79% 0.8 mph W1.3 kmh W -- 30.10 in1019.3 mb - 0.00 in0.0 mm 0.01 in0.3 mm
03:10 AM 57.9°F14.4°C 51.4°F10.8°C 79% 2.5 mph WNW4.0 kmh WNW 7.0 mph11.3 kmh 30.10 in1019.3 mb - 0.00 in0.0 mm 0.01 in0.3 mm
03:20 AM 58.3°F14.6°C 51.5°F10.8°C 78% 10.2 mph NNE16.4 kmh NNE 20.0 mph32.2 kmh 30.08 in1018.6 mb - 0.00 in0.0 mm 0.01 in0.3 mm
03:30 AM 59.2°F15.1°C 51.6°F10.9°C 76% 16.3 mph NE26.2 kmh NE 23.0 mph37.0 kmh 30.07 in1018.3 mb - 0.00 in0.0 mm 0.01 in0.3 mm
03:40 AM 59.1°F15.1°C 51.5°F10.8°C 76% 15.3 mph NE24.6 kmh NE 21.0 mph33.8 kmh 30.07 in1018.3 mb - 0.00 in0.0 mm 0.01 in0.3 mm
03:50 AM 59.3°F15.2°C 51.7°F10.9°C 76% 7.0 mph N11.3 kmh N 11.0 mph17.7 kmh 30.07 in1018.3 mb - 0.00 in0.0 mm 0.01 in0.3 mm
04:00 AM 59.5°F15.3°C 51.5°F10.8°C 75% 8.2 mph NNE13.2 kmh NNE 17.0 mph27.4 kmh 30.07 in1018.3 mb - 0.00 in0.0 mm 0.01 in0.3 mm
04:10 AM 59.6°F15.3°C 51.7°F10.9°C 75% 6.3 mph NNE10.1 kmh NNE 17.0 mph27.4 kmh 30.07 in1018.3 mb - 0.00 in0.0 mm 0.01 in0.3 mm
04:20 AM 59.6°F15.3°C 51.7°F10.9°C 75% 9.0 mph N14.5 kmh N 13.0 mph20.9 kmh 30.07 in1018.3 mb - 0.00 in0.0 mm 0.01 in0.3 mm
04:30 AM 59.3°F15.2°C 51.8°F11.0°C 76% 1.6 mph NW2.6 kmh NW 6.0 mph9.7 kmh 30.08 in1018.6 mb - 0.00 in0.0 mm 0.01 in0.3 mm
05:10 AM 58.6°F14.8°C 52.1°F11.2°C 79% 7.8 mph SW12.6 kmh SW 9.0 mph14.5 kmh 30.09 in1019.0 mb - 0.00 in0.0 mm 0.01 in0.3 mm
05:20 AM 58.4°F14.7°C 51.9°F11.1°C 79% 4.2 mph SW6.8 kmh SW 6.0 mph9.7 kmh 30.10 in1019.3 mb - 0.00 in0.0 mm 0.01 in0.3 mm
05:30 AM 58.4°F14.7°C 51.6°F10.9°C 78% Calm Calm -- 30.10 in1019.3 mb - 0.00 in0.0 mm 0.01 in0.3 mm
05:40 AM 58.5°F14.7°C 51.7°F10.9°C 78% 4.0 mph S6.4 kmh S 5.0 mph8.0 kmh 30.10 in1019.3 mb - 0.00 in0.0 mm 0.01 in0.3 mm
05:50 AM 58.7°F14.8°C 51.5°F10.8°C 77% 8.3 mph SE13.4 kmh SE 12.0 mph19.3 kmh 30.10 in1019.3 mb - 0.00 in0.0 mm 0.01 in0.3 mm
06:00 AM 58.6°F14.8°C 51.8°F11.0°C 78% 6.0 mph ESE9.7 kmh ESE 15.0 mph24.1 kmh 30.11 in1019.6 mb - 0.00 in0.0 mm 0.01 in0.3 mm
06:10 AM 58.7°F14.8°C 51.5°F10.8°C 77% 6.4 mph ESE10.3 kmh ESE 6.0 mph9.7 kmh 30.11 in1019.6 mb - 0.00 in0.0 mm 0.01 in0.3 mm
06:20 AM 58.8°F14.9°C 52.0°F11.1°C 78% 8.5 mph ESE13.7 kmh ESE 15.0 mph24.1 kmh 30.11 in1019.6 mb - 0.00 in0.0 mm 0.01 in0.3 mm
06:30 AM 58.6°F14.8°C 51.8°F11.0°C 78% 5.1 mph E8.2 kmh E 9.0 mph14.5 kmh 30.12 in1020.0 mb - 0.00 in0.0 mm 0.01 in0.3 mm
06:40 AM 58.6°F14.8°C 51.8°F11.0°C 78% 6.4 mph E10.3 kmh E 10.0 mph16.1 kmh 30.12 in1020.0 mb - 0.00 in0.0 mm 0.01 in0.3 mm
06:50 AM 58.9°F14.9°C 52.4°F11.3°C 79% 3.8 mph SE6.1 kmh SE 7.0 mph11.3 kmh 30.12 in1020.0 mb - 0.00 in0.0 mm 0.01 in0.3 mm
07:00 AM 58.9°F14.9°C 51.7°F10.9°C 77% 6.7 mph ENE10.8 kmh ENE 11.0 mph17.7 kmh 30.12 in1020.0 mb - 0.00 in0.0 mm 0.01 in0.3 mm
07:10 AM 58.9°F14.9°C 51.7°F10.9°C 77% 5.0 mph E8.0 kmh E 6.0 mph9.7 kmh 30.13 in1020.3 mb - 0.00 in0.0 mm 0.01 in0.3 mm
07:20 AM 59.1°F15.1°C 51.9°F11.1°C 77% 7.0 mph E11.3 kmh E 9.0 mph14.5 kmh 30.14 in1020.7 mb - 0.00 in0.0 mm 0.01 in0.3 mm
07:30 AM 59.5°F15.3°C 52.3°F11.3°C 77% 10.0 mph ENE16.1 kmh ENE 17.0 mph27.4 kmh 30.14 in1020.7 mb - 0.00 in0.0 mm 0.01 in0.3 mm
07:40 AM 59.7°F15.4°C 52.1°F11.2°C 76% 7.2 mph E11.6 kmh E 14.0 mph22.5 kmh 30.14 in1020.7 mb - 0.00 in0.0 mm 0.01 in0.3 mm
07:50 AM 60.0°F15.6°C 52.1°F11.2°C 75% 7.9 mph E12.7 kmh E 10.0 mph16.1 kmh 30.14 in1020.7 mb - 0.00 in0.0 mm 0.01 in0.3 mm
08:00 AM 60.7°F15.9°C 52.4°F11.3°C 74% 10.9 mph SE17.5 kmh SE 15.0 mph24.1 kmh 30.14 in1020.7 mb - 0.00 in0.0 mm 0.01 in0.3 mm
08:10 AM 60.7°F15.9°C 52.4°F11.3°C 74% 7.5 mph E12.1 kmh E 12.0 mph19.3 kmh 30.14 in1020.7 mb - 0.00 in0.0 mm 0.01 in0.3 mm
08:20 AM 61.6°F16.4°C 52.5°F11.4°C 72% 9.0 mph E14.5 kmh E 13.0 mph20.9 kmh 30.14 in1020.7 mb - 0.00 in0.0 mm 0.01 in0.3 mm
08:30 AM 61.8°F16.6°C 53.0°F11.7°C 73% 10.1 mph ENE16.3 kmh ENE 16.0 mph25.7 kmh 30.15 in1021.0 mb - 0.00 in0.0 mm 0.01 in0.3 mm
08:40 AM 61.9°F16.6°C 52.4°F11.3°C 71% 10.2 mph SE16.4 kmh SE 15.0 mph24.1 kmh 30.15 in1021.0 mb - 0.00 in0.0 mm 0.01 in0.3 mm
08:50 AM 62.2°F16.8°C 54.5°F12.5°C 76% 1.9 mph ESE3.1 kmh ESE 3.0 mph4.8 kmh 30.15 in1021.0 mb - 0.00 in0.0 mm 0.01 in0.3 mm
09:00 AM 62.7°F17.1°C 53.9°F12.2°C 73% 7.6 mph SSE12.2 kmh SSE 16.0 mph25.7 kmh 30.16 in1021.3 mb - 0.00 in0.0 mm 0.01 in0.3 mm
09:10 AM 62.8°F17.1°C 52.9°F11.6°C 70% 5.5 mph NE8.9 kmh NE 6.0 mph9.7 kmh 30.16 in1021.3 mb - 0.00 in0.0 mm 0.01 in0.3 mm
09:20 AM 63.5°F17.5°C 51.9°F11.1°C 66% 4.5 mph E7.2 kmh E 13.0 mph20.9 kmh 30.16 in1021.3 mb - 0.00 in0.0 mm 0.01 in0.3 mm
09:30 AM 63.4°F17.4°C 51.4°F10.8°C 65% 8.4 mph ESE13.5 kmh ESE 13.0 mph20.9 kmh 30.16 in1021.3 mb - 0.00 in0.0 mm 0.01 in0.3 mm
09:40 AM 63.8°F17.7°C 52.2°F11.2°C 66% 11.3 mph ENE18.2 kmh ENE 18.0 mph29.0 kmh 30.16 in1021.3 mb - 0.00 in0.0 mm 0.01 in0.3 mm
09:50 AM 64.0°F17.8°C 52.4°F11.3°C 66% 4.6 mph E7.4 kmh E 9.0 mph14.5 kmh 30.17 in1021.7 mb - 0.00 in0.0 mm 0.01 in0.3 mm
10:00 AM 64.0°F17.8°C 51.6°F10.9°C 64% 11.1 mph ENE17.9 kmh ENE 15.0 mph24.1 kmh 30.16 in1021.3 mb - 0.00 in0.0 mm 0.01 in0.3 mm
10:10 AM 64.5°F18.1°C 52.1°F11.2°C 64% 11.7 mph NE18.8 kmh NE 15.0 mph24.1 kmh 30.17 in1021.7 mb - 0.00 in0.0 mm 0.01 in0.3 mm
10:20 AM 64.2°F17.9°C 52.6°F11.4°C 66% 10.8 mph NE17.4 kmh NE 18.0 mph29.0 kmh 30.16 in1021.3 mb - 0.00 in0.0 mm 0.01 in0.3 mm
10:30 AM 64.1°F17.8°C 52.1°F11.2°C 65% 13.0 mph ENE20.9 kmh ENE 18.0 mph29.0 kmh 30.16 in1021.3 mb - 0.00 in0.0 mm 0.01 in0.3 mm
10:40 AM 64.2°F17.9°C 52.2°F11.2°C 65% 12.4 mph E20.0 kmh E 13.0 mph20.9 kmh 30.17 in1021.7 mb - 0.00 in0.0 mm 0.01 in0.3 mm
10:50 AM 64.4°F18.0°C 52.8°F11.6°C 66% 9.0 mph E14.5 kmh E 10.0 mph16.1 kmh 30.17 in1021.7 mb - 0.00 in0.0 mm 0.01 in0.3 mm
11:00 AM 64.7°F18.2°C 52.7°F11.5°C 65% 14.4 mph E23.2 kmh E 16.0 mph25.7 kmh 30.16 in1021.3 mb - 0.00 in0.0 mm 0.01 in0.3 mm
11:10 AM 64.3°F17.9°C 52.7°F11.5°C 66% 14.2 mph E22.9 kmh E 21.0 mph33.8 kmh 30.16 in1021.3 mb - 0.00 in0.0 mm 0.01 in0.3 mm
11:20 AM 64.8°F18.2°C 52.8°F11.6°C 65% 14.3 mph E23.0 kmh E 18.0 mph29.0 kmh 30.16 in1021.3 mb - 0.00 in0.0 mm 0.01 in0.3 mm
11:30 AM 65.2°F18.4°C 53.2°F11.8°C 65% 6.0 mph ENE9.7 kmh ENE 10.0 mph16.1 kmh 30.16 in1021.3 mb - 0.00 in0.0 mm 0.01 in0.3 mm
11:40 AM 66.3°F19.1°C 53.7°F12.1°C 64% 9.8 mph E15.8 kmh E 13.0 mph20.9 kmh 30.16 in1021.3 mb - 0.00 in0.0 mm 0.01 in0.3 mm
11:50 AM 66.9°F19.4°C 53.1°F11.7°C 61% 9.6 mph ENE15.4 kmh ENE 14.0 mph22.5 kmh 30.16 in1021.3 mb - 0.00 in0.0 mm 0.01 in0.3 mm
12:00 PM 67.1°F19.5°C 53.2°F11.8°C 61% 7.9 mph NE12.7 kmh NE 13.0 mph20.9 kmh 30.16 in1021.3 mb - 0.00 in0.0 mm 0.01 in0.3 mm
12:10 PM 67.1°F19.5°C 52.8°F11.6°C 60% 10.6 mph ENE17.1 kmh ENE 13.0 mph20.9 kmh 30.17 in1021.7 mb - 0.00 in0.0 mm 0.01 in0.3 mm
12:20 PM 66.7°F19.3°C 52.8°F11.6°C 61% 11.7 mph E18.8 kmh E 18.0 mph29.0 kmh 30.16 in1021.3 mb - 0.00 in0.0 mm 0.01 in0.3 mm
12:30 PM 66.8°F19.3°C 52.5°F11.4°C 60% 8.9 mph E14.3 kmh E 12.0 mph19.3 kmh 30.16 in1021.3 mb - 0.00 in0.0 mm 0.01 in0.3 mm
12:40 PM 69.0°F20.6°C 56.3°F13.5°C 64% 2.8 mph SW4.5 kmh SW 5.0 mph8.0 kmh 30.16 in1021.3 mb - 0.00 in0.0 mm 0.01 in0.3 mm
12:50 PM 69.0°F20.6°C 55.0°F12.8°C 61% 2.5 mph ENE4.0 kmh ENE 6.0 mph9.7 kmh 30.16 in1021.3 mb - 0.00 in0.0 mm 0.01 in0.3 mm
01:00 PM 69.6°F20.9°C 51.7°F10.9°C 53% 9.4 mph NE15.1 kmh NE 11.0 mph17.7 kmh 30.16 in1021.3 mb - 0.00 in0.0 mm 0.01 in0.3 mm
01:10 PM 70.1°F21.2°C 51.7°F10.9°C 52% 7.1 mph ESE11.4 kmh ESE 9.0 mph14.5 kmh 30.16 in1021.3 mb - 0.00 in0.0 mm 0.01 in0.3 mm
01:20 PM 69.6°F20.9°C 51.7°F10.9°C 53% 8.4 mph ENE13.5 kmh ENE 12.0 mph19.3 kmh 30.16 in1021.3 mb - 0.00 in0.0 mm 0.01 in0.3 mm
01:30 PM 69.0°F20.6°C 52.2°F11.2°C 55% 8.5 mph ENE13.7 kmh ENE 11.0 mph17.7 kmh 30.15 in1021.0 mb - 0.00 in0.0 mm 0.01 in0.3 mm
01:40 PM 69.4°F20.8°C 54.4°F12.4°C 59% 7.8 mph ESE12.6 kmh ESE 11.0 mph17.7 kmh 30.16 in1021.3 mb - 0.00 in0.0 mm 0.01 in0.3 mm
01:50 PM 68.0°F20.0°C 52.2°F11.2°C 57% 14.0 mph E22.5 kmh E 14.0 mph22.5 kmh 30.15 in1021.0 mb - 0.00 in0.0 mm 0.01 in0.3 mm
02:00 PM 69.4°F20.8°C 53.9°F12.2°C 58% 2.5 mph NE4.0 kmh NE 7.0 mph11.3 kmh 30.16 in1021.3 mb - 0.00 in0.0 mm 0.01 in0.3 mm
02:10 PM 70.2°F21.2°C 53.3°F11.8°C 55% 6.0 mph ENE9.7 kmh ENE 13.0 mph20.9 kmh 30.15 in1021.0 mb - 0.00 in0.0 mm 0.01 in0.3 mm
02:20 PM 68.9°F20.5°C 50.5°F10.3°C 52% 8.4 mph E13.5 kmh E 15.0 mph24.1 kmh 30.15 in1021.0 mb - 0.00 in0.0 mm 0.01 in0.3 mm
02:30 PM 69.7°F20.9°C 50.7°F10.4°C 51% 7.9 mph E12.7 kmh E 14.0 mph22.5 kmh 30.15 in1021.0 mb - 0.00 in0.0 mm 0.01 in0.3 mm
02:40 PM 69.9°F21.1°C 49.9°F9.9°C 49% 9.2 mph E14.8 kmh E 13.0 mph20.9 kmh 30.15 in1021.0 mb - 0.00 in0.0 mm 0.01 in0.3 mm
02:50 PM 69.9°F21.1°C 50.9°F10.5°C 51% 4.7 mph E7.6 kmh E 7.0 mph11.3 kmh 30.14 in1020.7 mb - 0.00 in0.0 mm 0.01 in0.3 mm
03:00 PM 68.3°F20.2°C 54.8°F12.7°C 62% 3.5 mph SW5.6 kmh SW 4.0 mph6.4 kmh 30.14 in1020.7 mb - 0.00 in0.0 mm 0.01 in0.3 mm
03:10 PM 68.7°F20.4°C 48.8°F9.3°C 49% 6.5 mph E10.5 kmh E 13.0 mph20.9 kmh 30.14 in1020.7 mb - 0.00 in0.0 mm 0.01 in0.3 mm
03:20 PM 67.3°F19.6°C 55.2°F12.9°C 65% 8.3 mph S13.4 kmh S 11.0 mph17.7 kmh 30.14 in1020.7 mb - 0.00 in0.0 mm 0.01 in0.3 mm
03:30 PM 67.6°F19.8°C 50.9°F10.5°C 55% 4.6 mph SE7.4 kmh SE 6.0 mph9.7 kmh 30.14 in1020.7 mb - 0.00 in0.0 mm 0.01 in0.3 mm
03:40 PM 65.7°F18.7°C 56.4°F13.6°C 72% 3.2 mph SSE5.1 kmh SSE 5.0 mph8.0 kmh 30.14 in1020.7 mb - 0.00 in0.0 mm 0.01 in0.3 mm
03:50 PM 65.3°F18.5°C 56.8°F13.8°C 74% 3.4 mph S5.5 kmh S 5.0 mph8.0 kmh 30.14 in1020.7 mb - 0.00 in0.0 mm 0.01 in0.3 mm
04:00 PM 64.7°F18.2°C 57.0°F13.9°C 76% 1.9 mph S3.1 kmh S 7.0 mph11.3 kmh 30.14 in1020.7 mb - 0.00 in0.0 mm 0.01 in0.3 mm
04:10 PM 65.0°F18.3°C 57.9°F14.4°C 78% 6.5 mph SSE10.5 kmh SSE 11.0 mph17.7 kmh 30.14 in1020.7 mb - 0.00 in0.0 mm 0.01 in0.3 mm
04:20 PM 65.6°F18.7°C 57.5°F14.2°C 75% 2.7 mph SSE4.3 kmh SSE 4.0 mph6.4 kmh 30.14 in1020.7 mb - 0.00 in0.0 mm 0.01 in0.3 mm
04:30 PM 66.5°F19.2°C 49.9°F9.9°C 55% 6.7 mph NE10.8 kmh NE 11.0 mph17.7 kmh 30.14 in1020.7 mb - 0.00 in0.0 mm 0.01 in0.3 mm
04:40 PM 66.5°F19.2°C 51.2°F10.7°C 58% 4.9 mph ESE7.9 kmh ESE 11.0 mph17.7 kmh 30.14 in1020.7 mb - 0.00 in0.0 mm 0.01 in0.3 mm
04:50 PM 67.2°F19.6°C 57.5°F14.2°C 71% 2.7 mph NW4.3 kmh NW 8.0 mph12.9 kmh 30.15 in1021.0 mb - 0.00 in0.0 mm 0.01 in0.3 mm
05:00 PM 67.0°F19.4°C 47.2°F8.4°C 49% 10.7 mph NE17.2 kmh NE 21.0 mph33.8 kmh 30.15 in1021.0 mb - 0.00 in0.0 mm 0.01 in0.3 mm
05:10 PM 66.1°F18.9°C 47.4°F8.6°C 51% 11.4 mph E18.3 kmh E 16.0 mph25.7 kmh 30.15 in1021.0 mb - 0.00 in0.0 mm 0.01 in0.3 mm
05:20 PM 66.0°F18.9°C 47.9°F8.8°C 52% 6.9 mph E11.1 kmh E 13.0 mph20.9 kmh 30.15 in1021.0 mb - 0.00 in0.0 mm 0.01 in0.3 mm
05:30 PM 65.8°F18.8°C 48.7°F9.3°C 54% 9.5 mph ENE15.3 kmh ENE 15.0 mph24.1 kmh 30.15 in1021.0 mb - 0.00 in0.0 mm 0.01 in0.3 mm
05:40 PM 65.5°F18.6°C 47.4°F8.6°C 52% 11.7 mph NE18.8 kmh NE 18.0 mph29.0 kmh 30.15 in1021.0 mb - 0.00 in0.0 mm 0.01 in0.3 mm
05:50 PM 65.4°F18.6°C 47.8°F8.8°C 53% 12.9 mph NE20.8 kmh NE 18.0 mph29.0 kmh 30.15 in1021.0 mb - 0.00 in0.0 mm 0.01 in0.3 mm
06:00 PM 64.7°F18.2°C 47.1°F8.4°C 53% 10.5 mph E16.9 kmh E 14.0 mph22.5 kmh 30.15 in1021.0 mb - 0.00 in0.0 mm 0.01 in0.3 mm
06:10 PM 64.0°F17.8°C 47.5°F8.6°C 55% 13.8 mph NE22.2 kmh NE 20.0 mph32.2 kmh 30.16 in1021.3 mb - 0.00 in0.0 mm 0.01 in0.3 mm
06:20 PM 63.3°F17.4°C 47.8°F8.8°C 57% 9.4 mph NE15.1 kmh NE 12.0 mph19.3 kmh 30.16 in1021.3 mb - 0.00 in0.0 mm 0.01 in0.3 mm
06:30 PM 63.0°F17.2°C 48.4°F9.1°C 59% 14.3 mph NE23.0 kmh NE 18.0 mph29.0 kmh 30.16 in1021.3 mb - 0.00 in0.0 mm 0.01 in0.3 mm
06:40 PM 62.6°F17.0°C 47.6°F8.7°C 58% 8.7 mph NE14.0 kmh NE 12.0 mph19.3 kmh 30.16 in1021.3 mb - 0.00 in0.0 mm 0.01 in0.3 mm
06:50 PM 62.6°F17.0°C 47.7°F8.7°C 58% 12.5 mph E20.1 kmh E 19.0 mph30.6 kmh 30.16 in1021.3 mb - 0.00 in0.0 mm 0.01 in0.3 mm
07:00 PM 62.2°F16.8°C 48.6°F9.2°C 61% 13.7 mph ENE22.0 kmh ENE 19.0 mph30.6 kmh 30.16 in1021.3 mb - 0.00 in0.0 mm 0.01 in0.3 mm
07:10 PM 62.0°F16.7°C 48.0°F8.9°C 60% 12.2 mph ENE19.6 kmh ENE 18.0 mph29.0 kmh 30.16 in1021.3 mb - 0.00 in0.0 mm 0.01 in0.3 mm
07:20 PM 61.8°F16.6°C 47.8°F8.8°C 60% 15.2 mph NE24.5 kmh NE 22.0 mph35.4 kmh 30.16 in1021.3 mb - 0.00 in0.0 mm 0.01 in0.3 mm
07:30 PM 61.8°F16.6°C 47.8°F8.8°C 60% 14.4 mph ENE23.2 kmh ENE 22.0 mph35.4 kmh 30.16 in1021.3 mb - 0.00 in0.0 mm 0.01 in0.3 mm
07:40 PM 61.5°F16.4°C 47.5°F8.6°C 60% 11.2 mph NE18.0 kmh NE 13.0 mph20.9 kmh 30.17 in1021.7 mb - 0.00 in0.0 mm 0.01 in0.3 mm
07:50 PM 61.4°F16.3°C 47.8°F8.8°C 61% 13.5 mph NE21.7 kmh NE 25.0 mph40.2 kmh 30.16 in1021.3 mb - 0.00 in0.0 mm 0.01 in0.3 mm
08:00 PM 61.3°F16.3°C 47.2°F8.4°C 60% 12.7 mph NE20.4 kmh NE 23.0 mph37.0 kmh 30.16 in1021.3 mb - 0.00 in0.0 mm 0.01 in0.3 mm
08:10 PM 61.0°F16.1°C 47.9°F8.8°C 62% 13.3 mph NE21.4 kmh NE 17.0 mph27.4 kmh 30.17 in1021.7 mb - 0.00 in0.0 mm 0.01 in0.3 mm
08:20 PM 61.0°F16.1°C 48.3°F9.1°C 63% 13.2 mph NE21.2 kmh NE 15.0 mph24.1 kmh 30.18 in1022.0 mb - 0.00 in0.0 mm 0.01 in0.3 mm
08:30 PM 61.4°F16.3°C 47.4°F8.6°C 60% 10.7 mph E17.2 kmh E 13.0 mph20.9 kmh 30.18 in1022.0 mb - 0.00 in0.0 mm 0.01 in0.3 mm
08:40 PM 61.5°F16.4°C 48.4°F9.1°C 62% 9.4 mph NE15.1 kmh NE 9.0 mph14.5 kmh 30.18 in1022.0 mb - 0.00 in0.0 mm 0.01 in0.3 mm
08:50 PM 61.5°F16.4°C 48.3°F9.1°C 62% 9.9 mph E15.9 kmh E 14.0 mph22.5 kmh 30.18 in1022.0 mb - 0.00 in0.0 mm 0.01 in0.3 mm
09:00 PM 61.3°F16.3°C 49.5°F9.7°C 65% 13.3 mph NE21.4 kmh NE 17.0 mph27.4 kmh 30.18 in1022.0 mb - 0.00 in0.0 mm 0.01 in0.3 mm
09:10 PM 61.0°F16.1°C 49.6°F9.8°C 66% 12.9 mph NE20.8 kmh NE 19.0 mph30.6 kmh 30.19 in1022.4 mb - 0.00 in0.0 mm 0.01 in0.3 mm
09:20 PM 61.1°F16.2°C 49.7°F9.8°C 66% 10.4 mph NE16.7 kmh NE 25.0 mph40.2 kmh 30.19 in1022.4 mb - 0.00 in0.0 mm 0.01 in0.3 mm
09:30 PM 61.1°F16.2°C 49.7°F9.8°C 66% 15.1 mph E24.3 kmh E 17.0 mph27.4 kmh 30.19 in1022.4 mb - 0.00 in0.0 mm 0.01 in0.3 mm
09:40 PM 61.2°F16.2°C 49.7°F9.8°C 66% 15.8 mph NE25.4 kmh NE 26.0 mph41.8 kmh 30.19 in1022.4 mb - 0.00 in0.0 mm 0.01 in0.3 mm
09:50 PM 61.3°F16.3°C 50.2°F10.1°C 67% 14.4 mph NE23.2 kmh NE 18.0 mph29.0 kmh 30.20 in1022.7 mb - 0.00 in0.0 mm 0.01 in0.3 mm
10:00 PM 61.3°F16.3°C 50.6°F10.3°C 68% 13.8 mph E22.2 kmh E 17.0 mph27.4 kmh 30.20 in1022.7 mb - 0.00 in0.0 mm 0.01 in0.3 mm
10:10 PM 60.9°F16.1°C 51.0°F10.6°C 70% 11.1 mph NE17.9 kmh NE 14.0 mph22.5 kmh 30.20 in1022.7 mb - 0.00 in0.0 mm 0.01 in0.3 mm
10:20 PM 61.0°F16.1°C 50.4°F10.2°C 68% 15.4 mph NE24.8 kmh NE 20.0 mph32.2 kmh 30.20 in1022.7 mb - 0.00 in0.0 mm 0.01 in0.3 mm
10:30 PM 61.0°F16.1°C 50.4°F10.2°C 68% 11.1 mph NE17.9 kmh NE 20.0 mph32.2 kmh 30.20 in1022.7 mb - 0.00 in0.0 mm 0.01 in0.3 mm
10:40 PM 61.0°F16.1°C 50.0°F10.0°C 67% 9.0 mph NE14.5 kmh NE 23.0 mph37.0 kmh 30.20 in1022.7 mb - 0.00 in0.0 mm 0.01 in0.3 mm
10:50 PM 61.0°F16.1°C 50.0°F10.0°C 67% 12.9 mph NE20.8 kmh NE 18.0 mph29.0 kmh 30.19 in1022.4 mb - 0.00 in0.0 mm 0.01 in0.3 mm
11:00 PM 61.1°F16.2°C 50.4°F10.2°C 68% 11.5 mph NE18.5 kmh NE 16.0 mph25.7 kmh 30.19 in1022.4 mb - 0.00 in0.0 mm 0.00 in0.0 mm
11:10 PM 61.1°F16.2°C 50.1°F10.1°C 67% 10.5 mph N16.9 kmh N 16.0 mph25.7 kmh 30.20 in1022.7 mb - 0.00 in0.0 mm 0.00 in0.0 mm
11:20 PM 61.1°F16.2°C 50.5°F10.3°C 68% 15.8 mph NE25.4 kmh NE 20.0 mph32.2 kmh 30.20 in1022.7 mb - 0.00 in0.0 mm 0.00 in0.0 mm
11:30 PM 61.0°F16.1°C 50.4°F10.2°C 68% 16.1 mph NE25.9 kmh NE 20.0 mph32.2 kmh 30.19 in1022.4 mb - 0.00 in0.0 mm 0.00 in0.0 mm
11:40 PM 61.2°F16.2°C 50.1°F10.1°C 67% 12.3 mph NE19.8 kmh NE 22.0 mph35.4 kmh 30.19 in1022.4 mb - 0.00 in0.0 mm 0.00 in0.0 mm
11:50 PM 61.3°F16.3°C 50.2°F10.1°C 67% 12.9 mph NE20.8 kmh NE 18.0 mph29.0 kmh 30.19 in1022.4 mb - 0.00 in0.0 mm 0.00 in0.0 mm